createdAt,value
2022-09-07T00:01:10.648Z,63.50
2022-09-07T00:03:38.623Z,63.70
2022-09-07T00:06:10.881Z,63.80
2022-09-07T00:08:41.018Z,63.90
2022-09-07T00:11:12.942Z,63.90
2022-09-07T00:13:43.369Z,64.00
2022-09-07T00:16:13.754Z,64.10
2022-09-07T00:18:45.748Z,64.20
2022-09-07T00:21:17.644Z,64.20
2022-09-07T00:23:46.282Z,64.10
2022-09-07T00:26:15.859Z,64.00
2022-09-07T00:28:44.550Z,64.00
2022-09-07T00:31:15.399Z,64.00
2022-09-07T00:33:44.347Z,64.10
2022-09-07T00:36:12.999Z,64.20
2022-09-07T00:38:42.504Z,64.30
2022-09-07T00:41:11.505Z,64.40
2022-09-07T00:43:41.836Z,64.50
2022-09-07T00:46:14.603Z,64.60
2022-09-07T00:48:47.723Z,64.70
2022-09-07T00:51:19.720Z,64.80
2022-09-07T00:53:54.314Z,64.80
2022-09-07T00:56:24.923Z,64.80
2022-09-07T00:58:53.887Z,64.80
2022-09-07T01:01:22.416Z,64.80
2022-09-07T01:03:53.171Z,64.90
2022-09-07T01:06:23.225Z,64.90
2022-09-07T01:08:52.742Z,65.10
2022-09-07T01:11:23.366Z,65.20
2022-09-07T01:13:52.967Z,65.20
2022-09-07T01:16:33.238Z,65.30
2022-09-07T01:19:14.974Z,65.30
2022-09-07T01:21:57.039Z,65.30
2022-09-07T01:24:53.332Z,65.30
2022-09-07T01:27:52.244Z,65.30
2022-09-07T01:30:22.021Z,65.30
2022-09-07T01:33:10.502Z,65.30
2022-09-07T01:35:46.262Z,65.30
2022-09-07T01:38:20.682Z,65.40
2022-09-07T01:40:56.179Z,65.50
2022-09-07T01:43:35.252Z,65.60
2022-09-07T01:46:06.455Z,65.80
2022-09-07T01:48:37.090Z,65.80
2022-09-07T01:51:06.245Z,65.80
2022-09-07T01:53:40.099Z,65.80
2022-09-07T01:56:11.309Z,65.90
2022-09-07T01:58:44.421Z,66.00
2022-09-07T02:01:18.215Z,66.10
2022-09-07T02:03:50.829Z,66.10
2022-09-07T02:06:24.066Z,66.00
2022-09-07T02:08:57.070Z,66.10
2022-09-07T02:11:30.996Z,66.10
2022-09-07T02:14:04.184Z,66.20
2022-09-07T02:16:36.043Z,66.20
2022-09-07T02:19:09.503Z,66.30
2022-09-07T02:21:42.178Z,66.20
2022-09-07T02:24:13.569Z,66.20
2022-09-07T02:26:42.575Z,66.30
2022-09-07T02:29:11.910Z,66.30
2022-09-07T02:31:39.881Z,66.30
2022-09-07T02:34:07.894Z,66.40
2022-09-07T02:36:40.911Z,66.50
2022-09-07T02:39:09.023Z,66.60
2022-09-07T02:41:39.489Z,66.90
2022-09-07T02:44:10.296Z,67.10
2022-09-07T02:46:53.546Z,67.30
2022-09-07T02:49:39.763Z,67.40
2022-09-07T02:52:20.963Z,67.50
2022-09-07T02:55:01.048Z,67.60
2022-09-07T02:57:44.515Z,67.70
2022-09-07T03:00:15.067Z,67.60
2022-09-07T03:02:52.257Z,67.50
2022-09-07T03:05:24.177Z,67.60
2022-09-07T03:07:56.923Z,67.70
2022-09-07T03:10:25.419Z,67.80
2022-09-07T03:12:53.384Z,67.90
2022-09-07T03:15:23.216Z,68.00
2022-09-07T03:17:53.289Z,68.20
2022-09-07T03:20:21.925Z,68.30
2022-09-07T03:22:51.297Z,68.40
2022-09-07T03:25:20.411Z,68.50
2022-09-07T03:27:48.408Z,68.60
2022-09-07T03:30:16.367Z,68.80
2022-09-07T03:32:44.295Z,68.90
2022-09-07T03:35:14.937Z,69.10
2022-09-07T03:37:42.944Z,69.30
2022-09-07T03:40:13.207Z,69.40
2022-09-07T03:42:41.279Z,69.60
2022-09-07T03:45:10.438Z,69.70
2022-09-07T03:47:39.008Z,69.90
2022-09-07T03:50:08.347Z,70.10
2022-09-07T03:52:38.176Z,70.40
2022-09-07T03:55:06.887Z,70.70
2022-09-07T03:57:35.022Z,70.90
2022-09-07T04:00:03.511Z,71.10
2022-09-07T04:02:40.455Z,71.30
2022-09-07T04:05:09.265Z,71.40
2022-09-07T04:07:38.569Z,71.70
2022-09-07T04:10:07.172Z,72.00
2022-09-07T04:12:35.102Z,72.20
2022-09-07T04:15:03.039Z,72.40
2022-09-07T04:17:30.984Z,72.70
2022-09-07T04:19:58.901Z,73.00
2022-09-07T04:22:26.895Z,73.10
2022-09-07T04:24:56.169Z,73.30
2022-09-07T04:27:24.107Z,73.40
2022-09-07T04:29:52.032Z,73.60
2022-09-07T04:32:19.960Z,73.80
2022-09-07T04:34:48.809Z,74.00
2022-09-07T04:37:16.775Z,74.10
2022-09-07T04:39:44.788Z,74.60
2022-09-07T04:42:14.257Z,74.50
2022-09-07T04:44:42.181Z,75.00
2022-09-07T04:47:10.236Z,75.20
2022-09-07T04:49:38.217Z,75.20
2022-09-07T04:52:06.118Z,75.40
2022-09-07T04:54:34.128Z,75.70
2022-09-07T04:57:02.070Z,75.80
2022-09-07T04:59:31.482Z,76.00
2022-09-07T05:01:59.545Z,76.10
2022-09-07T05:04:27.534Z,76.20
2022-09-07T05:06:55.950Z,76.20
2022-09-07T05:09:23.857Z,76.10
2022-09-07T05:11:51.804Z,76.10
2022-09-07T05:14:20.251Z,76.10
2022-09-07T05:16:49.640Z,76.10
2022-09-07T05:19:17.581Z,76.10
2022-09-07T05:21:45.498Z,76.10
2022-09-07T05:24:13.502Z,76.10
2022-09-07T05:26:41.855Z,76.10
2022-09-07T05:31:59.242Z,76.00
2022-09-07T05:36:56.290Z,75.90
2022-09-07T05:39:24.457Z,75.80
2022-09-07T05:41:52.528Z,75.80
2022-09-07T05:47:10.119Z,75.60
2022-09-07T05:49:38.358Z,75.60
2022-09-07T05:52:06.365Z,75.80
2022-09-07T05:54:34.672Z,75.90
2022-09-07T05:57:03.520Z,76.00
2022-09-07T05:59:31.795Z,76.30
2022-09-07T06:01:59.981Z,76.40
2022-09-07T06:04:29.418Z,76.50
2022-09-07T06:12:33.439Z,76.80
2022-09-07T06:15:01.554Z,76.80
2022-09-07T06:17:31.001Z,76.80
2022-09-07T06:20:00.283Z,76.90
2022-09-07T06:22:30.957Z,76.70
2022-09-07T06:24:59.295Z,76.50
2022-09-07T06:27:27.251Z,76.40
2022-09-07T06:29:55.532Z,76.30
2022-09-07T06:35:13.058Z,76.00
2022-09-07T06:37:41.511Z,75.80
2022-09-07T06:40:11.531Z,75.70
2022-09-07T06:42:39.630Z,75.60
2022-09-07T06:45:11.403Z,75.50
2022-09-07T06:47:40.000Z,75.40
2022-09-07T06:50:09.052Z,75.40
2022-09-07T06:55:27.717Z,75.20
2022-09-07T06:57:55.734Z,75.20
2022-09-07T07:00:23.732Z,75.20
2022-09-07T07:02:51.903Z,75.10
2022-09-07T07:05:19.872Z,75.10
2022-09-07T07:07:49.110Z,75.00
2022-09-07T07:10:19.706Z,74.90
2022-09-07T07:12:50.285Z,74.80
2022-09-07T07:15:18.448Z,74.70
2022-09-07T07:17:51.933Z,74.70
2022-09-07T07:20:24.026Z,74.70
2022-09-07T07:22:53.616Z,74.60
2022-09-07T07:25:22.052Z,74.60
2022-09-07T07:27:50.447Z,74.60
2022-09-07T07:30:19.481Z,74.40
2022-09-07T07:32:48.298Z,74.40
2022-09-07T07:35:16.512Z,74.40
2022-09-07T07:37:44.395Z,74.40
2022-09-07T07:40:15.408Z,74.20
2022-09-07T07:42:44.615Z,74.20
2022-09-07T07:48:00.953Z,74.00
2022-09-07T07:50:32.770Z,74.00
2022-09-07T07:55:50.487Z,74.00
2022-09-07T07:58:18.710Z,74.00
2022-09-07T08:00:55.633Z,74.00
2022-09-07T08:03:24.805Z,74.00
2022-09-07T08:05:53.146Z,73.90
2022-09-07T08:08:23.166Z,73.80
2022-09-07T08:10:52.982Z,73.70
2022-09-07T08:13:21.426Z,73.70
2022-09-07T08:15:49.568Z,73.50
2022-09-07T08:18:18.060Z,73.40
2022-09-07T08:20:45.922Z,73.30
2022-09-07T08:23:15.210Z,73.20
2022-09-07T08:25:52.509Z,73.20
2022-09-07T08:28:20.929Z,72.90
2022-09-07T08:30:48.876Z,72.80
2022-09-07T08:33:17.437Z,72.70
2022-09-07T08:35:56.216Z,72.60
2022-09-07T08:38:24.422Z,72.50
2022-09-07T08:40:54.154Z,72.50
2022-09-07T08:43:31.353Z,72.40
2022-09-07T08:46:05.669Z,72.30
2022-09-07T08:48:35.571Z,72.20
2022-09-07T08:51:10.850Z,72.10
2022-09-07T08:53:45.465Z,71.80
2022-09-07T08:56:19.931Z,71.80
2022-09-07T08:58:50.449Z,71.60
2022-09-07T09:01:35.968Z,71.60
2022-09-07T09:04:22.275Z,71.50
2022-09-07T09:07:06.671Z,71.40
2022-09-07T09:09:58.457Z,71.50
2022-09-07T09:12:37.558Z,71.40
2022-09-07T09:15:16.845Z,71.40
2022-09-07T09:17:48.788Z,71.40
2022-09-07T09:20:24.798Z,71.40
2022-09-07T09:22:53.337Z,71.30
2022-09-07T09:25:26.437Z,71.20
2022-09-07T09:27:55.693Z,71.10
2022-09-07T09:30:24.656Z,71.00
2022-09-07T09:32:54.008Z,70.90
2022-09-07T09:35:28.506Z,70.80
2022-09-07T09:37:57.565Z,70.80
2022-09-07T09:40:29.107Z,70.70
2022-09-07T09:43:03.666Z,70.60
2022-09-07T09:48:31.507Z,70.60
2022-09-07T09:53:55.768Z,70.40
2022-09-07T09:56:36.150Z,70.30
2022-09-07T10:05:27.531Z,69.70
2022-09-07T10:07:56.288Z,69.80
2022-09-07T10:10:24.275Z,69.60
2022-09-07T10:12:55.156Z,69.70
2022-09-07T10:15:40.186Z,69.70
2022-09-07T10:18:16.712Z,69.40
2022-09-07T10:20:44.653Z,69.40
2022-09-07T10:23:22.320Z,69.30
2022-09-07T10:25:50.225Z,69.20
2022-09-07T10:28:21.130Z,69.00
2022-09-07T10:31:09.953Z,68.90
2022-09-07T10:36:42.905Z,68.30
2022-09-07T10:39:16.043Z,68.40
2022-09-07T10:41:49.643Z,68.30
2022-09-07T10:44:30.058Z,68.30
2022-09-07T10:47:03.949Z,68.30
2022-09-07T10:50:22.077Z,68.20
2022-09-07T10:52:35.956Z,68.30
2022-09-07T10:55:13.046Z,68.20
2022-09-07T10:57:55.649Z,68.20
2022-09-07T11:00:24.374Z,67.90
2022-09-07T11:03:28.065Z,67.70
2022-09-07T11:06:09.581Z,67.70
2022-09-07T11:14:35.938Z,67.70
2022-09-07T11:17:09.528Z,67.70
2022-09-07T11:19:45.158Z,67.80
2022-09-07T11:22:23.396Z,67.80
2022-09-07T11:27:48.258Z,67.60
2022-09-07T11:30:22.799Z,67.40
2022-09-07T11:32:59.073Z,67.30
2022-09-07T11:35:37.842Z,67.30
2022-09-07T11:38:15.029Z,67.10
2022-09-07T11:40:49.662Z,67.00
2022-09-07T11:43:21.726Z,66.90
2022-09-07T11:45:53.846Z,66.80
2022-09-07T11:48:30.491Z,66.70
2022-09-07T11:51:03.228Z,66.60
2022-09-07T11:53:34.559Z,66.50
2022-09-07T11:56:06.064Z,66.40
2022-09-07T11:58:53.931Z,66.30
2022-09-07T12:01:31.737Z,66.30
2022-09-07T12:04:19.300Z,66.20
2022-09-07T12:07:08.748Z,66.10
2022-09-07T12:09:51.099Z,66.00
2022-09-07T12:12:43.714Z,65.90
2022-09-07T12:15:24.727Z,65.40
2022-09-07T12:18:07.563Z,65.10
2022-09-07T12:20:41.359Z,64.80
2022-09-07T12:23:26.353Z,64.70
2022-09-07T12:26:38.335Z,64.50
2022-09-07T12:29:21.001Z,64.20
2022-09-07T12:31:59.858Z,63.90
2022-09-07T12:34:47.274Z,63.90
2022-09-07T12:37:43.100Z,64.00
2022-09-07T12:40:58.808Z,63.00
2022-09-07T12:43:46.840Z,63.40
2022-09-07T12:46:36.838Z,63.40
2022-09-07T12:49:16.927Z,63.10
2022-09-07T12:52:11.427Z,63.00
2022-09-07T12:54:59.686Z,63.00
2022-09-07T12:57:45.016Z,63.00
2022-09-07T13:00:18.864Z,62.70
2022-09-07T13:03:49.619Z,62.70
2022-09-07T13:06:07.286Z,62.70
2022-09-07T13:09:06.043Z,62.60
2022-09-07T13:11:37.536Z,62.20
2022-09-07T13:14:18.526Z,62.40
2022-09-07T13:20:39.122Z,62.10
2022-09-07T13:23:29.732Z,61.90
2022-09-07T13:26:00.470Z,61.70
2022-09-07T13:29:02.864Z,61.30
2022-09-07T13:31:47.164Z,61.10
2022-09-07T13:34:41.027Z,60.80
2022-09-07T13:37:17.416Z,60.50
2022-09-07T13:39:49.096Z,60.20
2022-09-07T13:42:19.428Z,59.80
2022-09-07T13:44:55.173Z,59.50
2022-09-07T13:47:53.093Z,59.80
2022-09-07T13:50:27.519Z,59.70
2022-09-07T13:53:12.281Z,59.50
2022-09-07T13:55:46.600Z,59.40
2022-09-07T13:58:17.926Z,59.40
2022-09-07T14:00:54.574Z,59.30
2022-09-07T14:03:26.714Z,59.10
2022-09-07T14:06:17.469Z,58.90
2022-09-07T14:08:49.732Z,58.50
2022-09-07T14:11:19.898Z,58.30
2022-09-07T14:13:47.767Z,58.20
2022-09-07T14:16:17.202Z,58.10
2022-09-07T14:18:46.776Z,57.90
2022-09-07T14:21:19.170Z,57.50
2022-09-07T14:23:51.913Z,57.60
2022-09-07T14:26:22.052Z,57.30
2022-09-07T14:28:52.375Z,57.10
2022-09-07T14:31:22.144Z,56.90
2022-09-07T14:33:54.351Z,56.70
2022-09-07T14:39:17.942Z,56.90
2022-09-07T14:41:46.562Z,56.90
2022-09-07T14:44:35.554Z,57.00
2022-09-07T14:47:08.999Z,57.10
2022-09-07T14:49:38.652Z,57.10
2022-09-07T14:52:06.677Z,57.00
2022-09-07T14:54:35.445Z,57.00
2022-09-07T14:57:07.467Z,56.80
2022-09-07T14:59:39.513Z,57.10
2022-09-07T15:02:40.827Z,57.20
2022-09-07T15:05:26.421Z,57.20
2022-09-07T15:07:57.604Z,57.40
2022-09-07T15:10:36.807Z,57.30
2022-09-07T15:13:07.203Z,57.30
2022-09-07T15:15:37.473Z,57.30
2022-09-07T15:18:26.952Z,57.30
2022-09-07T15:20:56.245Z,57.10
2022-09-07T15:23:24.217Z,56.90
2022-09-07T15:25:54.082Z,56.60
2022-09-07T15:34:04.797Z,56.10
2022-09-07T15:36:34.177Z,56.20
2022-09-07T15:39:03.292Z,56.30
2022-09-07T15:41:32.050Z,56.30
2022-09-07T15:44:00.322Z,56.30
2022-09-07T15:46:28.564Z,56.30
2022-09-07T15:48:57.122Z,56.50
2022-09-07T15:54:17.390Z,56.60
2022-09-07T15:57:48.400Z,56.60
2022-09-07T15:59:33.981Z,56.60
2022-09-07T16:02:02.822Z,56.70
2022-09-07T16:04:31.285Z,56.80
2022-09-07T16:07:01.535Z,56.90
2022-09-07T16:09:31.066Z,56.90
2022-09-07T16:12:59.963Z,56.90
2022-09-07T16:14:46.988Z,57.00
2022-09-07T16:17:35.726Z,57.00
2022-09-07T16:20:02.915Z,57.00
2022-09-07T16:25:20.163Z,57.20
2022-09-07T16:27:48.054Z,57.20
2022-09-07T16:30:15.953Z,57.20
2022-09-07T16:32:44.662Z,57.10
2022-09-07T16:35:12.802Z,57.20
2022-09-07T16:38:43.675Z,57.20
2022-09-07T16:40:30.090Z,57.30
2022-09-07T16:42:58.014Z,57.30
2022-09-07T16:48:14.120Z,57.30
2022-09-07T16:50:54.178Z,57.20
2022-09-07T16:53:26.863Z,57.20
2022-09-07T16:56:01.396Z,57.10
2022-09-07T16:58:38.275Z,57.20
2022-09-07T17:01:07.418Z,57.10
2022-09-07T17:03:36.883Z,57.20
2022-09-07T17:06:06.665Z,57.20
2022-09-07T17:08:36.729Z,57.10
2022-09-07T17:11:07.847Z,57.10
2022-09-07T17:13:37.800Z,57.00
2022-09-07T17:16:08.182Z,57.00
2022-09-07T17:21:24.980Z,57.00
2022-09-07T17:23:55.788Z,57.00
2022-09-07T17:26:27.175Z,57.00
2022-09-07T17:29:00.291Z,57.10
2022-09-07T17:34:18.777Z,57.30
2022-09-07T17:36:46.895Z,57.30
2022-09-07T17:39:17.697Z,57.40
2022-09-07T17:41:52.699Z,57.40
2022-09-07T17:44:21.184Z,57.50
2022-09-07T17:46:49.125Z,57.50
2022-09-07T17:49:17.814Z,57.60
2022-09-07T17:51:46.571Z,57.70
2022-09-07T17:54:17.728Z,57.70
2022-09-07T17:56:46.749Z,57.80
2022-09-07T18:02:05.032Z,57.80
2022-09-07T18:04:36.021Z,57.90
2022-09-07T18:07:04.565Z,57.80
2022-09-07T18:09:32.545Z,57.90
2022-09-07T18:12:00.564Z,57.80
2022-09-07T18:14:30.182Z,57.70
2022-09-07T18:16:58.138Z,57.60
2022-09-07T18:19:26.164Z,57.80
2022-09-07T18:21:54.200Z,57.70
2022-09-07T18:24:24.790Z,57.60
2022-09-07T18:26:54.512Z,57.60
2022-09-07T18:29:34.090Z,57.50
2022-09-07T18:32:08.424Z,57.50
2022-09-07T18:34:37.920Z,57.40
2022-09-07T18:37:06.616Z,57.40
2022-09-07T18:39:35.566Z,57.40
2022-09-07T18:42:03.741Z,57.50
2022-09-07T18:47:28.945Z,57.40
2022-09-07T18:49:57.831Z,57.50
2022-09-07T18:55:14.850Z,57.60
2022-09-07T18:57:42.993Z,57.60
2022-09-07T19:00:13.123Z,57.60
2022-09-07T19:02:42.765Z,57.70
2022-09-07T19:07:59.602Z,57.80
2022-09-07T19:10:27.698Z,57.80
2022-09-07T19:12:56.651Z,57.90
2022-09-07T19:15:24.676Z,58.00
2022-09-07T19:17:54.032Z,58.00
2022-09-07T19:20:22.028Z,58.00
2022-09-07T19:22:49.986Z,58.10
2022-09-07T19:25:19.349Z,58.00
2022-09-07T19:27:47.815Z,58.00
2022-09-07T19:30:17.428Z,58.00
2022-09-07T19:32:45.484Z,58.00
2022-09-07T19:35:14.788Z,58.20
2022-09-07T19:37:42.715Z,58.30
2022-09-07T19:40:15.833Z,58.40
2022-09-07T19:42:46.456Z,58.50
2022-09-07T19:45:15.451Z,58.70
2022-09-07T19:47:43.850Z,58.70
2022-09-07T19:50:11.853Z,58.70
2022-09-07T19:52:41.148Z,58.70
2022-09-07T19:55:09.960Z,58.90
2022-09-07T19:57:37.911Z,58.90
2022-09-07T20:00:09.078Z,58.90
2022-09-07T20:02:39.946Z,58.90
2022-09-07T20:05:08.413Z,58.90
2022-09-07T20:07:36.325Z,59.00
2022-09-07T20:10:06.712Z,59.10
2022-09-07T20:12:34.649Z,59.20
2022-09-07T20:15:02.570Z,59.30
2022-09-07T20:17:35.310Z,59.40
2022-09-07T20:20:04.325Z,59.40
2022-09-07T20:22:32.403Z,59.50
2022-09-07T20:25:00.413Z,59.50
2022-09-07T20:27:30.559Z,59.60
2022-09-07T20:29:58.483Z,59.60
2022-09-07T20:32:28.172Z,59.70
2022-09-07T20:34:56.383Z,59.70
2022-09-07T20:37:27.261Z,59.80
2022-09-07T20:39:55.239Z,59.90
2022-09-07T20:42:23.128Z,60.00
2022-09-07T20:44:53.476Z,60.10
2022-09-07T20:47:21.370Z,60.20
2022-09-07T20:49:49.354Z,60.20
2022-09-07T20:52:17.268Z,60.10
2022-09-07T20:54:45.153Z,60.10
2022-09-07T20:57:13.135Z,60.20
2022-09-07T20:59:40.984Z,60.20
2022-09-07T21:02:11.538Z,60.20
2022-09-07T21:04:39.613Z,60.30
2022-09-07T21:07:07.557Z,60.30
2022-09-07T21:09:35.546Z,60.30
2022-09-07T21:12:04.092Z,60.30
2022-09-07T21:14:32.132Z,60.50
2022-09-07T21:17:00.122Z,60.60
2022-09-07T21:19:29.353Z,60.80
2022-09-07T21:21:57.223Z,60.90
2022-09-07T21:24:25.588Z,60.90
2022-09-07T21:26:53.575Z,61.00
2022-09-07T21:29:23.996Z,61.00
2022-09-07T21:31:53.804Z,61.00
2022-09-07T21:34:22.166Z,61.10
2022-09-07T21:36:51.839Z,61.00
2022-09-07T21:39:20.786Z,61.00
2022-09-07T21:41:48.964Z,61.10
2022-09-07T21:44:17.384Z,61.20
2022-09-07T21:46:45.669Z,61.20
2022-09-07T21:49:13.623Z,61.20
2022-09-07T21:51:41.631Z,61.30
2022-09-07T21:54:10.985Z,61.40
2022-09-07T21:56:42.003Z,61.50
2022-09-07T21:59:12.478Z,61.60
2022-09-07T22:01:41.170Z,61.70
2022-09-07T22:04:09.076Z,61.70
2022-09-07T22:06:37.699Z,61.70
2022-09-07T22:09:05.973Z,61.80
2022-09-07T22:11:35.233Z,61.80
2022-09-07T22:14:04.730Z,61.80
2022-09-07T22:16:33.799Z,61.80
2022-09-07T22:19:01.994Z,61.80
2022-09-07T22:21:31.765Z,61.90
2022-09-07T22:24:02.123Z,61.90
2022-09-07T22:26:31.833Z,62.10
2022-09-07T22:29:01.308Z,62.20
2022-09-07T22:31:31.507Z,62.40
2022-09-07T22:34:00.722Z,62.40
2022-09-07T22:36:30.853Z,62.50
2022-09-07T22:39:01.157Z,62.50
2022-09-07T22:41:30.723Z,62.50
2022-09-07T22:43:59.545Z,62.40
2022-09-07T22:46:30.643Z,62.40
2022-09-07T22:48:59.523Z,62.40
2022-09-07T22:51:28.281Z,62.40
2022-09-07T22:53:56.686Z,62.50
2022-09-07T22:56:26.050Z,62.60
2022-09-07T22:58:56.965Z,62.60
2022-09-07T23:01:25.801Z,62.60
2022-09-07T23:03:56.133Z,62.60
2022-09-07T23:06:25.642Z,62.70
2022-09-07T23:08:54.852Z,62.80
2022-09-07T23:11:24.207Z,63.00
2022-09-07T23:13:52.982Z,63.20
2022-09-07T23:16:21.705Z,63.40
2022-09-07T23:18:50.197Z,63.80
2022-09-07T23:21:19.706Z,64.20
2022-09-07T23:23:51.046Z,64.50
2022-09-07T23:26:19.315Z,64.60
2022-09-07T23:28:51.162Z,64.70
2022-09-07T23:31:19.082Z,64.80
2022-09-07T23:33:46.989Z,65.10
2022-09-07T23:36:15.454Z,65.30
2022-09-07T23:38:44.764Z,65.60
2022-09-07T23:41:13.861Z,65.90
2022-09-07T23:43:42.133Z,66.10
2022-09-07T23:46:11.607Z,66.30
2022-09-07T23:48:39.961Z,66.50
2022-09-07T23:51:08.090Z,66.50
2022-09-07T23:53:35.957Z,66.80
2022-09-07T23:56:05.685Z,67.00
2022-09-07T23:58:33.584Z,67.20
